createdAt,value
2019-03-09T00:01:39.001Z,1.37
2019-03-09T00:07:08.262Z,1.20
2019-03-09T00:12:37.532Z,1.07
2019-03-09T00:18:06.816Z,0.97
2019-03-09T00:23:53.983Z,1.10
2019-03-09T00:29:27.601Z,1.00
2019-03-09T00:34:56.877Z,1.07
2019-03-09T00:40:26.256Z,0.80
2019-03-09T00:45:55.515Z,1.53
2019-03-09T00:51:29.788Z,1.43
2019-03-09T00:57:01.388Z,1.30
2019-03-09T01:02:30.644Z,1.03
2019-03-09T01:07:59.930Z,1.07
2019-03-09T01:13:29.210Z,1.73
2019-03-09T01:18:59.493Z,1.37
2019-03-09T01:24:29.932Z,1.37
2019-03-09T01:29:59.194Z,1.27
2019-03-09T01:35:28.479Z,1.30
2019-03-09T01:40:57.744Z,1.07
2019-03-09T01:46:27.024Z,1.00
2019-03-09T01:51:56.295Z,1.17
2019-03-09T01:57:25.572Z,1.07
2019-03-09T02:02:54.850Z,1.20
2019-03-09T02:08:24.111Z,1.37
2019-03-09T02:13:53.390Z,1.20
2019-03-09T02:19:22.655Z,1.10
2019-03-09T02:24:51.919Z,1.17
2019-03-09T02:30:21.332Z,0.90
2019-03-09T02:35:50.615Z,0.90
2019-03-09T02:41:19.860Z,0.90
2019-03-09T02:46:51.075Z,1.00
2019-03-09T02:52:20.349Z,1.10
2019-03-09T02:57:50.623Z,1.00
2019-03-09T03:03:19.889Z,1.37
2019-03-09T03:08:49.161Z,1.20
2019-03-09T03:14:18.425Z,1.00
2019-03-09T03:19:47.702Z,1.13
2019-03-09T03:25:16.962Z,0.77
2019-03-09T03:30:46.246Z,1.07
2019-03-09T03:36:15.550Z,1.03
2019-03-09T03:41:45.791Z,1.00
2019-03-09T03:47:18.144Z,1.10
2019-03-09T03:52:47.788Z,1.10
2019-03-09T03:58:17.166Z,1.00
2019-03-09T04:03:46.578Z,1.10
2019-03-09T04:09:15.982Z,0.83
2019-03-09T04:14:45.251Z,1.07
2019-03-09T04:20:14.650Z,1.10
2019-03-09T04:25:44.009Z,1.17
2019-03-09T04:31:13.723Z,1.40
2019-03-09T04:36:43.326Z,1.07
2019-03-09T04:42:13.547Z,1.57
2019-03-09T04:48:02.149Z,1.33
2019-03-09T04:53:31.433Z,1.13
2019-03-09T04:59:01.655Z,1.40
2019-03-09T05:04:40.707Z,1.60
2019-03-09T05:10:14.482Z,1.20
2019-03-09T05:15:45.731Z,1.30
2019-03-09T05:21:14.995Z,2.30
2019-03-09T05:26:50.091Z,1.77
2019-03-09T05:32:38.779Z,1.97
2019-03-09T05:38:08.197Z,2.63
2019-03-09T05:43:43.483Z,2.10
2019-03-09T05:49:12.849Z,2.60
2019-03-09T05:54:42.247Z,2.17
2019-03-09T06:00:14.616Z,1.50
2019-03-09T06:05:49.618Z,1.63
2019-03-09T06:11:25.161Z,1.97
2019-03-09T06:16:54.669Z,1.60
2019-03-09T06:22:24.324Z,1.53
2019-03-09T06:27:53.847Z,1.70
2019-03-09T06:33:25.597Z,1.37
2019-03-09T06:39:02.323Z,1.70
2019-03-09T06:44:31.628Z,1.20
2019-03-09T06:50:03.938Z,1.43
2019-03-09T06:55:34.900Z,1.00
2019-03-09T07:01:20.422Z,1.50
2019-03-09T07:06:49.970Z,1.30
2019-03-09T07:12:19.518Z,1.20
2019-03-09T07:17:49.093Z,1.33
2019-03-09T07:23:18.747Z,0.80
2019-03-09T07:28:48.137Z,1.70
2019-03-09T07:34:26.919Z,1.47
2019-03-09T07:39:56.367Z,1.27
2019-03-09T07:45:25.864Z,1.20
2019-03-09T07:50:55.378Z,1.20
2019-03-09T07:56:24.962Z,1.70
2019-03-09T08:01:54.465Z,1.33
2019-03-09T08:07:23.973Z,1.23
2019-03-09T08:12:53.496Z,2.07
2019-03-09T08:18:22.958Z,1.10
2019-03-09T08:23:52.624Z,1.30
2019-03-09T08:29:22.057Z,1.83
2019-03-09T08:34:51.580Z,1.10
2019-03-09T08:40:26.263Z,1.03
2019-03-09T08:45:56.071Z,1.40
2019-03-09T08:51:25.890Z,1.00
2019-03-09T08:56:55.307Z,1.20
2019-03-09T09:02:24.939Z,1.00
2019-03-09T09:07:56.256Z,1.40
2019-03-09T09:13:26.880Z,1.00
2019-03-09T09:18:56.325Z,0.93
2019-03-09T09:24:25.941Z,0.90
2019-03-09T09:29:55.701Z,1.20
2019-03-09T09:35:25.397Z,0.70
2019-03-09T09:40:55.178Z,1.07
2019-03-09T09:46:25.059Z,0.90
2019-03-09T09:51:55.964Z,0.80
2019-03-09T09:57:25.762Z,1.17
2019-03-09T10:02:55.640Z,1.10
2019-03-09T10:08:25.340Z,1.00
2019-03-09T10:13:58.469Z,0.80
2019-03-09T10:19:28.033Z,0.80
2019-03-09T10:24:57.500Z,0.77
2019-03-09T10:30:27.114Z,1.07
2019-03-09T10:35:59.560Z,0.90
2019-03-09T10:41:30.483Z,0.70
2019-03-09T10:46:59.994Z,0.90
2019-03-09T10:52:29.506Z,0.60
2019-03-09T10:58:01.719Z,0.73
2019-03-09T11:03:31.148Z,0.80
2019-03-09T11:09:19.764Z,0.70
2019-03-09T11:14:50.018Z,0.80
2019-03-09T11:20:20.994Z,1.00
2019-03-09T11:25:50.671Z,0.90
2019-03-09T11:31:20.194Z,0.90
2019-03-09T11:36:51.370Z,0.80
2019-03-09T11:42:23.021Z,0.70
2019-03-09T11:47:52.665Z,0.90
2019-03-09T11:53:22.909Z,0.70
2019-03-09T11:59:14.531Z,0.80
2019-03-09T12:04:47.056Z,1.17
2019-03-09T12:10:15.561Z,0.80
2019-03-09T12:15:44.891Z,0.70
2019-03-09T12:21:14.332Z,0.90
2019-03-09T12:26:44.134Z,0.70
2019-03-09T12:32:14.674Z,0.90
2019-03-09T12:37:45.240Z,0.90
2019-03-09T12:43:14.758Z,1.00
2019-03-09T12:48:44.195Z,1.10
2019-03-09T12:54:13.655Z,0.93
2019-03-09T12:59:43.093Z,0.90
2019-03-09T13:05:12.710Z,0.73
2019-03-09T13:10:42.128Z,0.70
2019-03-09T13:16:11.605Z,0.80
2019-03-09T13:21:41.002Z,0.90
2019-03-09T13:27:13.214Z,0.87
2019-03-09T13:32:42.804Z,0.80
2019-03-09T13:38:12.291Z,1.20
2019-03-09T13:43:42.014Z,0.90
2019-03-09T13:49:13.504Z,0.87
2019-03-09T13:54:43.779Z,1.10
2019-03-09T14:00:18.325Z,0.90
2019-03-09T14:05:54.715Z,1.40
2019-03-09T14:11:24.323Z,1.23
2019-03-09T14:16:53.911Z,0.97
2019-03-09T14:22:23.792Z,1.13
2019-03-09T14:27:53.473Z,1.00
2019-03-09T14:33:24.184Z,1.00
2019-03-09T14:38:56.368Z,0.97
2019-03-09T14:44:25.856Z,1.20
2019-03-09T14:49:56.540Z,1.17
2019-03-09T14:55:26.063Z,1.00
2019-03-09T15:00:56.765Z,1.10
2019-03-09T15:06:26.373Z,1.60
2019-03-09T15:11:56.478Z,1.00
2019-03-09T15:17:26.111Z,1.47
2019-03-09T15:23:16.617Z,1.50
2019-03-09T15:28:47.676Z,1.50
2019-03-09T15:34:19.406Z,0.97
2019-03-09T15:39:54.423Z,1.10
2019-03-09T15:45:28.607Z,0.90
2019-03-09T15:50:58.206Z,0.80
2019-03-09T15:56:27.818Z,0.80
2019-03-09T16:01:57.258Z,0.80
2019-03-09T16:07:26.823Z,0.70
2019-03-09T16:12:56.450Z,1.27
2019-03-09T16:18:30.014Z,1.10
2019-03-09T16:24:06.240Z,1.10
2019-03-09T16:29:35.802Z,1.27
2019-03-09T16:35:07.681Z,1.00
2019-03-09T16:40:40.801Z,0.93
2019-03-09T16:46:08.510Z,0.90
2019-03-09T16:51:43.845Z,0.93
2019-03-09T16:57:13.578Z,1.10
2019-03-09T17:02:43.065Z,0.70
2019-03-09T17:08:14.343Z,1.40
2019-03-09T17:13:43.797Z,0.90
2019-03-09T17:19:14.179Z,0.90
2019-03-09T17:25:02.785Z,1.07
2019-03-09T17:30:32.073Z,0.80
2019-03-09T17:36:03.384Z,0.70
2019-03-09T17:41:32.660Z,0.80
2019-03-09T17:47:01.961Z,0.50
2019-03-09T17:52:31.296Z,0.77
2019-03-09T17:58:00.682Z,0.70
2019-03-09T18:03:29.987Z,0.80
2019-03-09T18:08:59.228Z,0.90
2019-03-09T18:14:32.190Z,0.90
2019-03-09T18:20:01.532Z,0.80
2019-03-09T18:25:32.081Z,1.00
2019-03-09T18:31:01.355Z,0.60
2019-03-09T18:36:30.624Z,0.70
2019-03-09T18:41:59.891Z,0.60
2019-03-09T18:47:31.467Z,0.67
2019-03-09T18:53:00.720Z,0.80
2019-03-09T18:58:30.116Z,0.80
2019-03-09T19:03:59.377Z,0.70
2019-03-09T19:09:29.679Z,0.70
2019-03-09T19:14:59.177Z,0.60
2019-03-09T19:20:28.714Z,1.10
2019-03-09T19:25:58.013Z,0.60
2019-03-09T19:31:27.325Z,1.00
2019-03-09T19:36:56.589Z,1.00
2019-03-09T19:42:25.889Z,0.80
2019-03-09T19:47:55.160Z,0.80
2019-03-09T19:53:24.440Z,0.80
2019-03-09T19:58:53.716Z,1.30
2019-03-09T20:04:23.051Z,1.10
2019-03-09T20:09:52.333Z,1.17
2019-03-09T20:15:22.159Z,1.43
2019-03-09T20:20:51.429Z,2.40
2019-03-09T20:26:20.702Z,1.57
2019-03-09T20:31:49.995Z,1.20
2019-03-09T20:37:19.248Z,1.80
2019-03-09T20:42:48.694Z,0.80
2019-03-09T20:48:18.403Z,1.07
2019-03-09T20:53:47.698Z,1.30
2019-03-09T20:59:17.168Z,1.53
2019-03-09T21:04:46.436Z,1.20
2019-03-09T21:10:20.562Z,1.50
2019-03-09T21:15:49.819Z,0.90
2019-03-09T21:21:19.090Z,0.97
2019-03-09T21:26:48.375Z,0.87
2019-03-09T21:32:17.646Z,0.57
2019-03-09T21:37:46.917Z,0.90
2019-03-09T21:43:16.191Z,0.90
2019-03-09T21:48:45.479Z,0.80
2019-03-09T21:54:15.766Z,0.80
2019-03-09T21:59:45.036Z,1.00
2019-03-09T22:05:14.454Z,0.70
2019-03-09T22:10:44.748Z,0.77
2019-03-09T22:16:14.105Z,0.70
2019-03-09T22:21:43.376Z,0.80
2019-03-09T22:27:13.616Z,1.00
2019-03-09T22:32:48.756Z,0.63
2019-03-09T22:38:25.979Z,0.70
2019-03-09T22:43:55.406Z,0.77
2019-03-09T22:49:24.672Z,0.63
2019-03-09T22:54:55.581Z,0.67
2019-03-09T23:00:28.731Z,0.70
2019-03-09T23:05:58.201Z,0.87
2019-03-09T23:11:30.683Z,0.60
2019-03-09T23:16:59.986Z,0.60
2019-03-09T23:22:29.327Z,0.70
2019-03-09T23:27:58.604Z,0.80
2019-03-09T23:33:27.892Z,0.70
2019-03-09T23:39:04.421Z,0.70
2019-03-09T23:44:33.672Z,0.80
2019-03-09T23:50:03.045Z,0.67
2019-03-09T23:55:32.462Z,0.70
